createdAt,value
2018-07-03T00:02:03.959Z,20.20
2018-07-03T00:04:34.384Z,20.10
2018-07-03T00:07:05.181Z,20.10
2018-07-03T00:09:35.565Z,20.10
2018-07-03T00:12:06.031Z,20.00
2018-07-03T00:14:36.598Z,20.00
2018-07-03T00:17:12.342Z,19.90
2018-07-03T00:19:42.823Z,19.90
2018-07-03T00:22:13.262Z,19.80
2018-07-03T00:24:44.247Z,19.80
2018-07-03T00:27:15.253Z,19.80
2018-07-03T00:29:45.716Z,19.80
2018-07-03T00:32:16.169Z,19.70
2018-07-03T00:34:46.610Z,19.60
2018-07-03T00:37:17.081Z,19.60
2018-07-03T00:39:47.467Z,19.60
2018-07-03T00:42:17.901Z,19.50
2018-07-03T00:44:48.353Z,19.50
2018-07-03T00:47:18.789Z,19.50
2018-07-03T00:49:49.288Z,19.40
2018-07-03T00:52:19.814Z,19.40
2018-07-03T00:54:50.188Z,19.40
2018-07-03T00:58:23.685Z,19.30
2018-07-03T01:00:54.112Z,19.20
2018-07-03T01:03:24.599Z,19.10
2018-07-03T01:05:55.050Z,19.00
2018-07-03T01:08:25.553Z,19.00
2018-07-03T01:10:56.043Z,18.90
2018-07-03T01:13:26.596Z,18.90
2018-07-03T01:15:57.180Z,18.90
2018-07-03T01:18:27.702Z,18.90
2018-07-03T01:20:58.146Z,18.90
2018-07-03T01:23:28.725Z,18.90
2018-07-03T01:28:29.178Z,18.80
2018-07-03T01:30:59.647Z,18.80
2018-07-03T01:33:30.032Z,18.70
2018-07-03T01:36:00.445Z,18.70
2018-07-03T01:38:30.901Z,18.70
2018-07-03T01:41:01.444Z,18.70
2018-07-03T01:43:31.899Z,18.60
2018-07-03T01:46:02.327Z,18.60
2018-07-03T01:48:32.845Z,18.50
2018-07-03T01:51:03.377Z,18.50
2018-07-03T01:53:33.908Z,18.40
2018-07-03T01:56:04.503Z,18.30
2018-07-03T01:58:34.921Z,18.30
2018-07-03T02:01:05.340Z,18.30
2018-07-03T02:03:35.728Z,18.30
2018-07-03T02:06:06.246Z,18.30
2018-07-03T02:08:36.680Z,18.20
2018-07-03T02:11:07.217Z,18.10
2018-07-03T02:13:37.624Z,18.20
2018-07-03T02:16:08.175Z,18.10
2018-07-03T02:18:38.621Z,18.10
2018-07-03T02:21:09.104Z,18.10
2018-07-03T02:23:39.477Z,18.10
2018-07-03T02:26:09.926Z,18.00
2018-07-03T02:28:40.378Z,18.00
2018-07-03T02:31:10.891Z,18.00
2018-07-03T02:33:41.291Z,18.00
2018-07-03T02:36:11.804Z,18.00
2018-07-03T02:38:42.222Z,18.00
2018-07-03T02:41:12.893Z,18.00
2018-07-03T02:43:43.410Z,18.00
2018-07-03T02:46:13.958Z,17.90
2018-07-03T02:48:44.376Z,17.90
2018-07-03T02:51:15.453Z,17.90
2018-07-03T02:53:45.824Z,17.80
2018-07-03T02:56:16.225Z,17.80
2018-07-03T02:58:46.622Z,17.70
2018-07-03T03:01:17.185Z,17.60
2018-07-03T03:03:47.652Z,17.50
2018-07-03T03:06:18.207Z,17.50
2018-07-03T03:08:48.676Z,17.50
2018-07-03T03:11:23.054Z,17.50
2018-07-03T03:13:55.638Z,17.50
2018-07-03T03:16:26.100Z,17.50
2018-07-03T03:18:56.602Z,17.50
2018-07-03T03:21:26.998Z,17.50
2018-07-03T03:23:57.486Z,17.50
2018-07-03T03:26:27.925Z,17.50
2018-07-03T03:28:58.346Z,17.50
2018-07-03T03:31:28.889Z,17.50
2018-07-03T03:33:59.220Z,17.50
2018-07-03T03:36:29.623Z,17.50
2018-07-03T03:39:00.121Z,17.50
2018-07-03T03:41:32.661Z,17.50
2018-07-03T03:44:03.141Z,17.50
2018-07-03T03:46:33.713Z,17.60
2018-07-03T03:49:04.135Z,17.50
2018-07-03T03:51:34.657Z,17.50
2018-07-03T03:54:05.148Z,17.50
2018-07-03T03:56:35.607Z,17.50
2018-07-03T03:59:06.038Z,17.50
2018-07-03T04:01:36.512Z,17.50
2018-07-03T04:04:07.073Z,17.60
2018-07-03T04:06:37.601Z,17.60
2018-07-03T04:09:10.612Z,17.60
2018-07-03T04:11:41.042Z,17.50
2018-07-03T04:14:11.672Z,17.60
2018-07-03T04:16:42.197Z,17.60
2018-07-03T04:19:12.687Z,17.60
2018-07-03T04:21:43.117Z,17.60
2018-07-03T04:24:14.773Z,17.60
2018-07-03T04:26:45.217Z,17.60
2018-07-03T04:29:15.803Z,17.60
2018-07-03T04:31:46.268Z,17.70
2018-07-03T04:34:16.757Z,17.70
2018-07-03T04:36:47.184Z,17.80
2018-07-03T04:39:17.647Z,17.80
2018-07-03T04:41:48.158Z,17.80
2018-07-03T04:44:18.659Z,17.90
2018-07-03T04:46:49.388Z,18.00
2018-07-03T04:49:19.944Z,18.00
2018-07-03T04:51:50.411Z,18.00
2018-07-03T04:54:20.881Z,18.00
2018-07-03T04:56:51.402Z,18.10
2018-07-03T04:59:21.957Z,18.60
2018-07-03T05:01:52.482Z,19.20
2018-07-03T05:04:22.977Z,19.80
2018-07-03T05:06:53.513Z,20.30
2018-07-03T05:09:24.140Z,20.80
2018-07-03T05:14:25.387Z,21.60
2018-07-03T05:16:59.045Z,22.00
2018-07-03T05:19:30.798Z,22.40
2018-07-03T05:22:01.221Z,22.60
2018-07-03T05:24:31.758Z,22.80
2018-07-03T05:27:02.251Z,23.20
2018-07-03T05:29:32.679Z,23.50
2018-07-03T05:32:03.201Z,23.70
2018-07-03T05:34:33.630Z,23.80
2018-07-03T05:37:04.134Z,24.00
2018-07-03T05:39:34.664Z,24.20
2018-07-03T05:42:05.182Z,24.30
2018-07-03T05:44:35.634Z,24.40
2018-07-03T05:47:06.159Z,24.60
2018-07-03T05:49:36.603Z,24.80
2018-07-03T05:52:07.380Z,25.00
2018-07-03T05:54:37.803Z,25.20
2018-07-03T05:57:08.356Z,25.20
2018-07-03T05:59:38.807Z,25.30
2018-07-03T06:02:09.357Z,25.50
2018-07-03T06:04:39.901Z,25.60
2018-07-03T06:07:10.337Z,25.70
2018-07-03T06:09:40.846Z,25.70
2018-07-03T06:12:11.345Z,25.70
2018-07-03T06:14:41.841Z,25.90
2018-07-03T06:17:15.329Z,26.10
2018-07-03T06:19:45.763Z,26.30
2018-07-03T06:22:16.138Z,26.10
2018-07-03T06:24:46.785Z,26.20
2018-07-03T06:27:17.296Z,26.30
2018-07-03T06:29:47.714Z,26.20
2018-07-03T06:32:18.231Z,26.30
2018-07-03T06:34:48.823Z,26.30
2018-07-03T06:37:19.971Z,26.50
2018-07-03T06:39:50.417Z,26.60
2018-07-03T06:42:20.957Z,26.60
2018-07-03T06:44:51.424Z,26.70
2018-07-03T06:47:22.044Z,26.60
2018-07-03T06:49:52.478Z,26.70
2018-07-03T06:52:22.990Z,26.60
2018-07-03T06:54:53.461Z,26.60
2018-07-03T06:57:24.124Z,26.70
2018-07-03T06:59:54.511Z,26.70
2018-07-03T07:02:25.087Z,26.70
2018-07-03T07:04:55.564Z,26.70
2018-07-03T07:07:26.036Z,26.60
2018-07-03T07:09:56.556Z,26.60
2018-07-03T07:12:27.089Z,26.70
2018-07-03T07:14:57.614Z,26.70
2018-07-03T07:17:28.093Z,26.60
2018-07-03T07:19:58.559Z,26.70
2018-07-03T07:22:28.985Z,26.70
2018-07-03T07:24:59.542Z,26.80
2018-07-03T07:27:30.131Z,26.70
2018-07-03T07:30:00.620Z,26.50
2018-07-03T07:32:31.309Z,26.50
2018-07-03T07:35:01.787Z,26.60
2018-07-03T07:37:32.335Z,26.70
2018-07-03T07:41:05.682Z,26.70
2018-07-03T07:43:36.152Z,26.70
2018-07-03T07:46:06.628Z,26.60
2018-07-03T07:48:37.146Z,26.70
2018-07-03T07:51:07.644Z,26.80
2018-07-03T07:53:38.140Z,26.80
2018-07-03T07:56:08.688Z,26.80
2018-07-03T07:58:39.183Z,26.80
2018-07-03T08:01:10.263Z,26.90
2018-07-03T08:03:40.816Z,27.00
2018-07-03T08:06:11.258Z,27.20
2018-07-03T08:08:41.772Z,27.50
2018-07-03T08:11:12.245Z,27.70
2018-07-03T08:13:42.714Z,27.70
2018-07-03T08:16:13.224Z,27.90
2018-07-03T08:18:43.825Z,27.80
2018-07-03T08:21:14.305Z,27.80
2018-07-03T08:23:44.844Z,27.60
2018-07-03T08:26:15.337Z,27.70
2018-07-03T08:28:45.794Z,27.60
2018-07-03T08:31:16.530Z,27.50
2018-07-03T08:33:46.972Z,27.50
2018-07-03T08:36:17.448Z,27.30
2018-07-03T08:38:47.952Z,27.40
2018-07-03T08:41:18.542Z,27.60
2018-07-03T08:43:49.028Z,27.90
2018-07-03T08:46:19.597Z,28.10
2018-07-03T08:48:50.184Z,28.10
2018-07-03T08:51:20.704Z,28.10
2018-07-03T08:53:51.202Z,28.20
2018-07-03T08:56:21.676Z,28.30
2018-07-03T08:58:52.138Z,28.40
2018-07-03T09:01:22.789Z,28.60
2018-07-03T09:03:53.233Z,28.80
2018-07-03T09:06:23.755Z,28.80
2018-07-03T09:08:54.352Z,28.70
2018-07-03T09:11:24.815Z,28.50
2018-07-03T09:13:55.462Z,28.60
2018-07-03T09:16:25.964Z,28.80
2018-07-03T09:18:56.368Z,28.80
2018-07-03T09:21:26.807Z,28.80
2018-07-03T09:23:57.226Z,29.00
2018-07-03T09:26:27.721Z,29.10
2018-07-03T09:28:58.196Z,29.00
2018-07-03T09:31:28.591Z,29.00
2018-07-03T09:33:59.046Z,28.90
2018-07-03T09:36:29.542Z,29.10
2018-07-03T09:38:59.941Z,29.20
2018-07-03T09:41:30.369Z,29.40
2018-07-03T09:44:01.156Z,29.70
2018-07-03T09:46:31.680Z,29.80
2018-07-03T09:49:02.151Z,29.70
2018-07-03T09:51:32.638Z,29.50
2018-07-03T09:54:03.142Z,29.30
2018-07-03T09:56:34.095Z,29.20
2018-07-03T09:59:04.687Z,29.10
2018-07-03T10:01:35.159Z,29.10
2018-07-03T10:04:05.690Z,29.20
2018-07-03T10:06:36.122Z,29.30
2018-07-03T10:09:09.472Z,29.30
2018-07-03T10:11:39.880Z,29.30
2018-07-03T10:14:10.569Z,29.30
2018-07-03T10:16:40.966Z,29.40
2018-07-03T10:19:11.441Z,29.70
2018-07-03T10:21:41.874Z,29.80
2018-07-03T10:24:12.334Z,29.80
2018-07-03T10:26:42.804Z,29.80
2018-07-03T10:29:13.312Z,29.80
2018-07-03T10:31:43.841Z,29.80
2018-07-03T10:34:14.304Z,29.70
2018-07-03T10:36:44.868Z,29.70
2018-07-03T10:39:15.387Z,29.80
2018-07-03T10:41:45.865Z,29.90
2018-07-03T10:44:16.465Z,30.10
2018-07-03T10:46:46.880Z,30.30
2018-07-03T10:49:17.334Z,30.20
2018-07-03T10:51:47.807Z,30.20
2018-07-03T10:54:18.356Z,30.20
2018-07-03T10:56:49.036Z,30.10
2018-07-03T10:59:20.838Z,30.20
2018-07-03T11:01:51.257Z,30.30
2018-07-03T11:04:21.755Z,30.30
2018-07-03T11:06:52.147Z,30.20
2018-07-03T11:09:22.591Z,30.20
2018-07-03T11:11:53.046Z,30.10
2018-07-03T11:14:23.552Z,30.20
2018-07-03T11:16:54.090Z,30.20
2018-07-03T11:19:24.583Z,30.30
2018-07-03T11:21:55.176Z,30.50
2018-07-03T11:24:25.926Z,30.60
2018-07-03T11:26:56.625Z,30.80
2018-07-03T11:29:27.086Z,30.90
2018-07-03T11:31:57.570Z,31.00
2018-07-03T11:34:28.041Z,31.00
2018-07-03T11:36:58.663Z,31.10
2018-07-03T11:39:29.332Z,31.20
2018-07-03T11:41:59.933Z,31.40
2018-07-03T11:44:30.484Z,31.40
2018-07-03T11:47:00.921Z,31.40
2018-07-03T11:49:31.374Z,31.00
2018-07-03T11:52:01.933Z,30.80
2018-07-03T11:54:32.440Z,30.80
2018-07-03T11:57:03.046Z,30.80
2018-07-03T11:59:33.436Z,30.90
2018-07-03T12:02:03.995Z,31.00
2018-07-03T12:04:34.415Z,31.00
2018-07-03T12:07:04.869Z,31.10
2018-07-03T12:09:35.304Z,31.10
2018-07-03T12:12:05.837Z,31.00
2018-07-03T12:14:36.303Z,30.80
2018-07-03T12:17:06.729Z,30.70
2018-07-03T12:19:37.185Z,30.60
2018-07-03T12:22:07.580Z,30.50
2018-07-03T12:24:38.245Z,30.20
2018-07-03T12:27:08.725Z,30.20
2018-07-03T12:29:39.213Z,30.30
2018-07-03T12:32:09.625Z,30.30
2018-07-03T12:34:40.378Z,30.30
2018-07-03T12:37:10.899Z,30.30
2018-07-03T12:39:41.259Z,30.50
2018-07-03T12:44:41.796Z,30.60
2018-07-03T12:47:12.233Z,30.80
2018-07-03T12:49:42.823Z,30.80
2018-07-03T12:52:13.337Z,30.70
2018-07-03T12:54:43.961Z,30.70
2018-07-03T12:57:14.427Z,30.70
2018-07-03T12:59:44.990Z,30.60
2018-07-03T13:02:15.622Z,30.50
2018-07-03T13:04:46.179Z,30.50
2018-07-03T13:07:16.674Z,30.50
2018-07-03T13:09:47.066Z,30.60
2018-07-03T13:12:17.466Z,30.50
2018-07-03T13:14:47.987Z,30.40
2018-07-03T13:17:18.396Z,30.40
2018-07-03T13:19:48.907Z,30.40
2018-07-03T13:22:19.381Z,30.30
2018-07-03T13:24:49.932Z,30.30
2018-07-03T13:27:20.512Z,30.40
2018-07-03T13:29:51.054Z,30.30
2018-07-03T13:32:21.746Z,30.50
2018-07-03T13:34:52.266Z,30.40
2018-07-03T13:37:22.804Z,30.40
2018-07-03T13:39:53.270Z,30.40
2018-07-03T13:42:24.456Z,30.50
2018-07-03T13:44:57.848Z,30.50
2018-07-03T13:47:28.485Z,30.40
2018-07-03T13:49:58.873Z,30.30
2018-07-03T13:52:29.793Z,30.30
2018-07-03T13:55:00.208Z,30.30
2018-07-03T13:57:31.304Z,30.30
2018-07-03T14:00:01.829Z,30.20
2018-07-03T14:02:32.263Z,30.20
2018-07-03T14:05:02.738Z,30.30
2018-07-03T14:07:33.267Z,30.30
2018-07-03T14:10:03.853Z,30.30
2018-07-03T14:12:34.402Z,30.30
2018-07-03T14:15:05.590Z,30.30
2018-07-03T14:17:36.087Z,30.30
2018-07-03T14:20:06.597Z,30.40
2018-07-03T14:22:37.573Z,30.50
2018-07-03T14:25:08.158Z,30.50
2018-07-03T14:27:38.643Z,30.60
2018-07-03T14:30:09.121Z,30.50
2018-07-03T14:32:39.554Z,30.50
2018-07-03T14:35:09.976Z,30.40
2018-07-03T14:37:40.464Z,30.30
2018-07-03T14:40:10.927Z,30.20
2018-07-03T14:42:41.415Z,30.20
2018-07-03T14:45:11.890Z,30.10
2018-07-03T14:47:42.387Z,30.20
2018-07-03T14:50:13.424Z,30.20
2018-07-03T14:55:13.941Z,30.20
2018-07-03T14:57:44.416Z,30.30
2018-07-03T15:02:45.742Z,30.30
2018-07-03T15:05:16.291Z,30.30
2018-07-03T15:07:46.866Z,30.10
2018-07-03T15:10:17.256Z,30.00
2018-07-03T15:15:17.774Z,30.10
2018-07-03T15:17:48.196Z,30.00
2018-07-03T15:20:18.773Z,30.10
2018-07-03T15:22:49.293Z,30.10
2018-07-03T15:25:19.908Z,30.10
2018-07-03T15:27:50.368Z,30.10
2018-07-03T15:30:21.934Z,30.20
2018-07-03T15:32:52.375Z,30.20
2018-07-03T15:35:22.886Z,30.20
2018-07-03T15:37:53.413Z,30.10
2018-07-03T15:40:24.262Z,30.20
2018-07-03T15:42:54.862Z,30.20
2018-07-03T15:45:25.384Z,30.20
2018-07-03T15:47:55.832Z,30.20
2018-07-03T15:50:26.253Z,30.20
2018-07-03T15:52:56.631Z,30.10
2018-07-03T15:55:27.110Z,30.10
2018-07-03T15:57:57.576Z,30.10
2018-07-03T16:00:27.941Z,30.10
2018-07-03T16:05:58.326Z,30.10
2018-07-03T16:08:49.778Z,30.00
2018-07-03T16:11:20.320Z,30.00
2018-07-03T16:13:50.994Z,29.90
2018-07-03T16:16:21.508Z,29.90
2018-07-03T16:18:52.012Z,29.90
2018-07-03T16:21:22.467Z,29.90
2018-07-03T16:26:22.879Z,30.00
2018-07-03T16:28:53.948Z,30.10
2018-07-03T16:31:25.185Z,30.00
2018-07-03T16:33:56.857Z,30.00
2018-07-03T16:36:27.435Z,29.90
2018-07-03T16:38:57.905Z,30.00
2018-07-03T16:41:28.545Z,29.90
2018-07-03T16:43:59.052Z,29.80
2018-07-03T16:46:29.577Z,29.80
2018-07-03T16:49:00.071Z,29.70
2018-07-03T16:51:30.618Z,29.70
2018-07-03T16:54:01.136Z,29.70
2018-07-03T16:56:31.634Z,29.60
2018-07-03T16:59:02.068Z,29.50
2018-07-03T17:01:32.519Z,29.60
2018-07-03T17:04:03.196Z,29.60
2018-07-03T17:09:05.154Z,29.60
2018-07-03T17:11:35.728Z,29.60
2018-07-03T17:14:08.555Z,29.50
2018-07-03T17:16:39.525Z,29.50
2018-07-03T17:19:15.253Z,29.50
2018-07-03T17:21:46.177Z,29.50
2018-07-03T17:24:16.655Z,29.30
2018-07-03T17:26:48.151Z,29.40
2018-07-03T17:29:18.746Z,29.40
2018-07-03T17:31:49.312Z,29.40
2018-07-03T17:34:22.620Z,29.40
2018-07-03T17:36:53.247Z,29.30
2018-07-03T17:39:33.757Z,29.30
2018-07-03T17:42:21.002Z,29.30
2018-07-03T17:46:07.739Z,29.30
2018-07-03T17:48:38.578Z,29.10
2018-07-03T17:51:09.000Z,29.00
2018-07-03T17:53:39.410Z,29.00
2018-07-03T17:56:09.865Z,29.00
2018-07-03T17:58:40.330Z,29.00
2018-07-03T18:01:10.882Z,28.90
2018-07-03T18:03:41.303Z,28.90
2018-07-03T18:06:12.129Z,28.90
2018-07-03T18:08:42.570Z,28.80
2018-07-03T18:11:12.933Z,28.80
2018-07-03T18:13:43.679Z,28.80
2018-07-03T18:16:14.268Z,28.80
2018-07-03T18:18:44.805Z,28.70
2018-07-03T18:21:15.265Z,28.80
2018-07-03T18:23:46.118Z,28.70
2018-07-03T18:26:17.308Z,28.70
2018-07-03T18:28:47.820Z,28.70
2018-07-03T18:31:19.248Z,28.70
2018-07-03T18:33:49.685Z,28.60
2018-07-03T18:36:20.258Z,28.60
2018-07-03T18:38:50.743Z,28.50
2018-07-03T18:41:21.323Z,28.40
2018-07-03T18:43:54.184Z,28.40
2018-07-03T18:46:24.763Z,28.30
2018-07-03T18:48:55.252Z,28.30
2018-07-03T18:51:25.866Z,28.20
2018-07-03T18:53:56.413Z,28.20
2018-07-03T18:56:27.742Z,28.10
2018-07-03T18:58:58.532Z,27.90
2018-07-03T19:01:29.161Z,27.90
2018-07-03T19:03:59.496Z,27.90
2018-07-03T19:06:30.074Z,27.90
2018-07-03T19:11:30.759Z,27.80
2018-07-03T19:14:01.655Z,27.70
2018-07-03T19:16:32.330Z,27.70
2018-07-03T19:19:02.777Z,27.70
2018-07-03T19:21:33.388Z,27.60
2018-07-03T19:24:03.973Z,27.50
2018-07-03T19:26:34.515Z,27.40
2018-07-03T19:29:05.070Z,27.40
2018-07-03T19:31:35.768Z,27.40
2018-07-03T19:34:06.383Z,27.40
2018-07-03T19:36:37.158Z,27.30
2018-07-03T19:39:12.216Z,27.20
2018-07-03T19:41:43.898Z,27.10
2018-07-03T19:44:15.093Z,27.20
2018-07-03T19:46:45.908Z,27.20
2018-07-03T19:49:16.513Z,27.10
2018-07-03T19:51:47.084Z,27.00
2018-07-03T19:54:17.599Z,27.00
2018-07-03T19:56:48.144Z,26.90
2018-07-03T19:59:18.788Z,26.90
2018-07-03T20:01:49.352Z,26.80
2018-07-03T20:04:23.104Z,26.70
2018-07-03T20:06:53.739Z,26.60
2018-07-03T20:09:24.248Z,26.50
2018-07-03T20:11:54.743Z,26.60
2018-07-03T20:14:25.267Z,26.50
2018-07-03T20:16:55.690Z,26.40
2018-07-03T20:19:26.193Z,26.40
2018-07-03T20:21:56.700Z,26.30
2018-07-03T20:24:27.205Z,26.30
2018-07-03T20:26:57.786Z,26.30
2018-07-03T20:29:28.267Z,26.20
2018-07-03T20:31:59.093Z,26.20
2018-07-03T20:34:29.837Z,26.10
2018-07-03T20:37:00.308Z,26.20
2018-07-03T20:39:30.796Z,26.10
2018-07-03T20:42:01.266Z,26.10
2018-07-03T20:44:31.759Z,26.10
2018-07-03T20:47:02.287Z,26.00
2018-07-03T20:52:02.726Z,25.90
2018-07-03T20:54:33.193Z,25.80
2018-07-03T20:57:03.708Z,25.70
2018-07-03T20:59:34.155Z,25.60
2018-07-03T21:02:04.609Z,25.50
2018-07-03T21:04:35.116Z,25.40
2018-07-03T21:07:05.496Z,25.40
2018-07-03T21:09:36.005Z,25.30
2018-07-03T21:12:06.491Z,25.30
2018-07-03T21:14:37.010Z,25.20
2018-07-03T21:17:07.516Z,25.10
2018-07-03T21:19:38.028Z,25.10
2018-07-03T21:22:08.533Z,25.00
2018-07-03T21:24:39.271Z,24.90
2018-07-03T21:27:10.215Z,24.90
2018-07-03T21:29:41.068Z,24.80
2018-07-03T21:32:11.558Z,24.80
2018-07-03T21:34:42.973Z,24.70
2018-07-03T21:37:13.361Z,24.60
2018-07-03T21:39:43.865Z,24.50
2018-07-03T21:42:14.281Z,24.50
2018-07-03T21:44:44.719Z,24.40
2018-07-03T21:47:15.210Z,24.30
2018-07-03T21:49:45.908Z,24.30
2018-07-03T21:52:16.369Z,24.20
2018-07-03T21:54:46.843Z,24.20
2018-07-03T21:57:17.290Z,24.10
2018-07-03T21:59:47.781Z,24.10
2018-07-03T22:02:18.216Z,23.90
2018-07-03T22:04:49.488Z,23.80
2018-07-03T22:07:19.905Z,23.70
2018-07-03T22:09:50.397Z,23.60
2018-07-03T22:12:20.923Z,23.60
2018-07-03T22:17:21.367Z,23.60
2018-07-03T22:19:51.741Z,23.60
2018-07-03T22:22:22.170Z,23.50
2018-07-03T22:24:52.637Z,23.50
2018-07-03T22:27:23.211Z,23.50
2018-07-03T22:29:53.594Z,23.50
2018-07-03T22:32:24.084Z,23.40
2018-07-03T22:34:54.521Z,23.40
2018-07-03T22:37:24.934Z,23.30
2018-07-03T22:39:55.365Z,23.20
2018-07-03T22:42:25.883Z,23.20
2018-07-03T22:44:56.318Z,23.20
2018-07-03T22:47:27.574Z,23.20
2018-07-03T22:49:57.979Z,23.20
2018-07-03T22:52:28.485Z,23.10
2018-07-03T22:54:59.026Z,23.00
2018-07-03T22:57:30.252Z,23.00
2018-07-03T23:00:00.856Z,23.10
2018-07-03T23:02:31.340Z,23.10
2018-07-03T23:05:01.811Z,23.10
2018-07-03T23:07:32.295Z,23.00
2018-07-03T23:10:02.768Z,23.00
2018-07-03T23:12:33.214Z,23.00
2018-07-03T23:15:03.673Z,23.00
2018-07-03T23:17:34.106Z,23.00
2018-07-03T23:20:04.537Z,23.00
2018-07-03T23:22:35.022Z,22.90
2018-07-03T23:25:05.493Z,22.80
2018-07-03T23:27:35.989Z,22.80
2018-07-03T23:30:06.517Z,22.80
2018-07-03T23:32:36.971Z,22.80
2018-07-03T23:35:07.367Z,22.80
2018-07-03T23:37:37.784Z,22.70
2018-07-03T23:40:08.243Z,22.70
2018-07-03T23:42:38.655Z,22.70
2018-07-03T23:45:09.059Z,22.70
2018-07-03T23:47:56.601Z,22.70
2018-07-03T23:53:37.024Z,22.70
2018-07-03T23:56:30.410Z,22.70
2018-07-03T23:59:23.816Z,22.70
